LFOP/URO METAR and TAF weather

Enter ICAO airport designator
Station Type Date Time Source
LFOP METAR 2019/05/27 09:00 UTC NOAA

LFOP 270900Z AUTO 29009KT 260V330 9999 BKN022 BKN028 15/10 Q1013 NOSIG


Station Type Date Time Source
LFOP Decoded METAR 2019/05/27 09:00 UTC NOAA

Rouen, France (LFOP) 49-23N 001-11E 157M
May 27, 2019 - 05:00 AM EDT / 2019.05.27 0900 UTC
Wind: from the WNW (290 degrees) at 10 MPH (9 KT) (direction variable):0
Visibility: greater than 7 mile(s):0
Sky conditions: mostly cloudy
Temperature: 59 F (15 C)
Dew Point: 50 F (10 C)
Relative Humidity: 72%
Pressure (altimeter): 29.91 in. Hg (1013 hPa)
ob: LFOP 270900Z AUTO 29009KT 260V330 9999 BKN022 BKN028 15/10 Q1013 NOSIG
cycle: 9

Station Type Date Time Source
LFOP TAF 2019/05/27 06:42 UTC NOAA

TAF TAF LFOP 270500Z 2706/2806 29008KT 5000 BR BKN006 BKN025
BECMG 2706/2709 9999 NSW SCT030
TEMPO 2723/2806 4000 SHRA BKN008 BKN025CB

Example: see airport list